sensor_id;sensor_type;location;lat;lon;timestamp;P1;durP1;ratioP1;P2;durP2;ratioP2
13475;SDS011;6810;63.824;20.288;2022-11-15T00:00:14;0.10;;;0.10;;
13475;SDS011;6810;63.824;20.288;2022-11-15T00:03:23;0.40;;;0.20;;
13475;SDS011;6810;63.824;20.288;2022-11-15T00:06:30;0.30;;;0.10;;
13475;SDS011;6810;63.824;20.288;2022-11-15T00:09:36;0.10;;;0.10;;
13475;SDS011;6810;63.824;20.288;2022-11-15T00:12:41;1.17;;;0.20;;
13475;SDS011;6810;63.824;20.288;2022-11-15T00:15:47;0.20;;;0.10;;
13475;SDS011;6810;63.824;20.288;2022-11-15T00:18:53;0.83;;;0.10;;
13475;SDS011;6810;63.824;20.288;2022-11-15T00:21:58;0.30;;;0.20;;
13475;SDS011;6810;63.824;20.288;2022-11-15T00:25:04;2.23;;;0.10;;
13475;SDS011;6810;63.824;20.288;2022-11-15T00:28:09;0.93;;;0.20;;
13475;SDS011;6810;63.824;20.288;2022-11-15T00:31:15;0.57;;;0.10;;
13475;SDS011;6810;63.824;20.288;2022-11-15T00:34:20;0.00;;;0.00;;
13475;SDS011;6810;63.824;20.288;2022-11-15T00:37:26;0.23;;;0.10;;
13475;SDS011;6810;63.824;20.288;2022-11-15T00:40:31;0.20;;;0.20;;
13475;SDS011;6810;63.824;20.288;2022-11-15T00:43:37;0.40;;;0.10;;
13475;SDS011;6810;63.824;20.288;2022-11-15T00:46:42;0.00;;;0.00;;
13475;SDS011;6810;63.824;20.288;2022-11-15T00:49:47;0.20;;;0.10;;
13475;SDS011;6810;63.824;20.288;2022-11-15T00:52:59;0.10;;;0.10;;
13475;SDS011;6810;63.824;20.288;2022-11-15T00:56:04;0.53;;;0.10;;
13475;SDS011;6810;63.824;20.288;2022-11-15T00:59:10;0.30;;;0.10;;
13475;SDS011;6810;63.824;20.288;2022-11-15T01:02:16;0.20;;;0.10;;
13475;SDS011;6810;63.824;20.288;2022-11-15T01:05:21;0.20;;;0.10;;
13475;SDS011;6810;63.824;20.288;2022-11-15T01:08:27;0.23;;;0.10;;
13475;SDS011;6810;63.824;20.288;2022-11-15T01:11:32;0.43;;;0.10;;
13475;SDS011;6810;63.824;20.288;2022-11-15T01:14:38;1.43;;;0.00;;
13475;SDS011;6810;63.824;20.288;2022-11-15T01:17:44;0.40;;;0.10;;
13475;SDS011;6810;63.824;20.288;2022-11-15T01:20:49;1.27;;;0.10;;
13475;SDS011;6810;63.824;20.288;2022-11-15T01:23:55;0.10;;;0.10;;
13475;SDS011;6810;63.824;20.288;2022-11-15T01:27:01;0.10;;;0.10;;
13475;SDS011;6810;63.824;20.288;2022-11-15T01:30:06;0.40;;;0.13;;
13475;SDS011;6810;63.824;20.288;2022-11-15T01:33:12;0.10;;;0.10;;
13475;SDS011;6810;63.824;20.288;2022-11-15T01:36:19;0.20;;;0.10;;
13475;SDS011;6810;63.824;20.288;2022-11-15T01:39:26;0.37;;;0.10;;
13475;SDS011;6810;63.824;20.288;2022-11-15T01:42:31;0.00;;;0.00;;
13475;SDS011;6810;63.824;20.288;2022-11-15T01:45:37;0.43;;;0.20;;
13475;SDS011;6810;63.824;20.288;2022-11-15T01:48:42;0.03;;;0.03;;
13475;SDS011;6810;63.824;20.288;2022-11-15T01:51:48;0.10;;;0.10;;
13475;SDS011;6810;63.824;20.288;2022-11-15T01:54:56;0.00;;;0.00;;
13475;SDS011;6810;63.824;20.288;2022-11-15T01:58:04;0.30;;;0.00;;
13475;SDS011;6810;63.824;20.288;2022-11-15T02:01:11;0.10;;;0.10;;
13475;SDS011;6810;63.824;20.288;2022-11-15T02:07:55;0.47;;;0.10;;
13475;SDS011;6810;63.824;20.288;2022-11-15T02:11:03;1.03;;;0.10;;
13475;SDS011;6810;63.824;20.288;2022-11-15T02:14:12;0.10;;;0.10;;
13475;SDS011;6810;63.824;20.288;2022-11-15T02:30:57;0.50;;;0.10;;
13475;SDS011;6810;63.824;20.288;2022-11-15T02:34:16;1.90;;;0.10;;
13475;SDS011;6810;63.824;20.288;2022-11-15T02:43:53;0.20;;;0.10;;
13475;SDS011;6810;63.824;20.288;2022-11-15T02:47:09;0.00;;;0.00;;
13475;SDS011;6810;63.824;20.288;2022-11-15T02:50:21;1.50;;;0.10;;
13475;SDS011;6810;63.824;20.288;2022-11-15T02:53:30;0.63;;;0.07;;
13475;SDS011;6810;63.824;20.288;2022-11-15T02:56:36;0.00;;;0.00;;
13475;SDS011;6810;63.824;20.288;2022-11-15T03:10:06;0.10;;;0.10;;
13475;SDS011;6810;63.824;20.288;2022-11-15T03:16:37;0.83;;;0.10;;
13475;SDS011;6810;63.824;20.288;2022-11-15T03:19:47;0.57;;;0.10;;
13475;SDS011;6810;63.824;20.288;2022-11-15T03:22:58;2.70;;;0.20;;
13475;SDS011;6810;63.824;20.288;2022-11-15T03:26:08;2.40;;;0.10;;
13475;SDS011;6810;63.824;20.288;2022-11-15T03:29:18;0.30;;;0.00;;
13475;SDS011;6810;63.824;20.288;2022-11-15T03:32:28;0.23;;;0.13;;
13475;SDS011;6810;63.824;20.288;2022-11-15T03:35:37;0.10;;;0.10;;
13475;SDS011;6810;63.824;20.288;2022-11-15T03:38:46;0.67;;;0.10;;
13475;SDS011;6810;63.824;20.288;2022-11-15T03:45:55;1.30;;;0.23;;
13475;SDS011;6810;63.824;20.288;2022-11-15T03:48:49;1.60;;;0.10;;
13475;SDS011;6810;63.824;20.288;2022-11-15T03:51:59;0.10;;;0.00;;
13475;SDS011;6810;63.824;20.288;2022-11-15T03:55:06;0.93;;;0.20;;
13475;SDS011;6810;63.824;20.288;2022-11-15T03:58:14;0.77;;;0.10;;
13475;SDS011;6810;63.824;20.288;2022-11-15T04:01:19;0.53;;;0.10;;
13475;SDS011;6810;63.824;20.288;2022-11-15T04:04:25;0.10;;;0.00;;
13475;SDS011;6810;63.824;20.288;2022-11-15T04:07:31;1.43;;;0.20;;
13475;SDS011;6810;63.824;20.288;2022-11-15T04:10:36;0.60;;;0.10;;
13475;SDS011;6810;63.824;20.288;2022-11-15T04:13:42;0.07;;;0.07;;
13475;SDS011;6810;63.824;20.288;2022-11-15T04:16:48;0.07;;;0.03;;
13475;SDS011;6810;63.824;20.288;2022-11-15T04:19:53;0.20;;;0.10;;
13475;SDS011;6810;63.824;20.288;2022-11-15T04:22:58;0.10;;;0.10;;
13475;SDS011;6810;63.824;20.288;2022-11-15T04:26:08;1.53;;;0.10;;
13475;SDS011;6810;63.824;20.288;2022-11-15T04:29:15;0.03;;;0.03;;
13475;SDS011;6810;63.824;20.288;2022-11-15T04:32:39;3.00;;;0.20;;
13475;SDS011;6810;63.824;20.288;2022-11-15T04:35:45;0.40;;;0.10;;
13475;SDS011;6810;63.824;20.288;2022-11-15T04:38:50;1.60;;;0.13;;
13475;SDS011;6810;63.824;20.288;2022-11-15T04:41:56;0.67;;;0.10;;
13475;SDS011;6810;63.824;20.288;2022-11-15T04:45:01;1.83;;;0.10;;
13475;SDS011;6810;63.824;20.288;2022-11-15T04:48:06;1.30;;;0.07;;
13475;SDS011;6810;63.824;20.288;2022-11-15T04:51:12;0.77;;;0.20;;
13475;SDS011;6810;63.824;20.288;2022-11-15T04:54:17;1.03;;;0.13;;
13475;SDS011;6810;63.824;20.288;2022-11-15T04:57:23;0.60;;;0.10;;
13475;SDS011;6810;63.824;20.288;2022-11-15T05:00:29;1.43;;;0.10;;
13475;SDS011;6810;63.824;20.288;2022-11-15T05:03:35;0.00;;;0.00;;
13475;SDS011;6810;63.824;20.288;2022-11-15T05:06:39;1.00;;;0.20;;
13475;SDS011;6810;63.824;20.288;2022-11-15T05:09:46;0.63;;;0.10;;
13475;SDS011;6810;63.824;20.288;2022-11-15T05:12:51;0.60;;;0.17;;
13475;SDS011;6810;63.824;20.288;2022-11-15T05:15:57;0.10;;;0.10;;
13475;SDS011;6810;63.824;20.288;2022-11-15T05:19:03;0.60;;;0.20;;
13475;SDS011;6810;63.824;20.288;2022-11-15T05:22:08;0.50;;;0.10;;
13475;SDS011;6810;63.824;20.288;2022-11-15T05:25:14;1.13;;;0.10;;
13475;SDS011;6810;63.824;20.288;2022-11-15T05:28:19;0.87;;;0.20;;
13475;SDS011;6810;63.824;20.288;2022-11-15T05:31:26;0.10;;;0.00;;
13475;SDS011;6810;63.824;20.288;2022-11-15T05:34:32;0.33;;;0.07;;
13475;SDS011;6810;63.824;20.288;2022-11-15T05:37:38;0.10;;;0.10;;
13475;SDS011;6810;63.824;20.288;2022-11-15T05:40:43;0.00;;;0.00;;
13475;SDS011;6810;63.824;20.288;2022-11-15T05:43:49;0.10;;;0.10;;
13475;SDS011;6810;63.824;20.288;2022-11-15T05:46:55;0.87;;;0.10;;
13475;SDS011;6810;63.824;20.288;2022-11-15T05:50:02;2.50;;;0.17;;
13475;SDS011;6810;63.824;20.288;2022-11-15T05:53:08;0.93;;;0.10;;
13475;SDS011;6810;63.824;20.288;2022-11-15T05:56:16;0.20;;;0.10;;
13475;SDS011;6810;63.824;20.288;2022-11-15T05:59:22;0.57;;;0.10;;
13475;SDS011;6810;63.824;20.288;2022-11-15T06:02:28;0.63;;;0.10;;
13475;SDS011;6810;63.824;20.288;2022-11-15T06:05:33;1.00;;;0.20;;
13475;SDS011;6810;63.824;20.288;2022-11-15T06:08:39;0.60;;;0.30;;
13475;SDS011;6810;63.824;20.288;2022-11-15T06:11:44;0.00;;;0.00;;
13475;SDS011;6810;63.824;20.288;2022-11-15T06:14:50;0.80;;;0.10;;
13475;SDS011;6810;63.824;20.288;2022-11-15T06:17:56;1.50;;;0.10;;
13475;SDS011;6810;63.824;20.288;2022-11-15T06:21:01;0.60;;;0.30;;
13475;SDS011;6810;63.824;20.288;2022-11-15T06:24:07;0.50;;;0.10;;
13475;SDS011;6810;63.824;20.288;2022-11-15T06:27:13;0.10;;;0.00;;
13475;SDS011;6810;63.824;20.288;2022-11-15T06:30:19;0.57;;;0.10;;
13475;SDS011;6810;63.824;20.288;2022-11-15T06:33:25;0.10;;;0.00;;
13475;SDS011;6810;63.824;20.288;2022-11-15T06:36:30;1.37;;;0.20;;
13475;SDS011;6810;63.824;20.288;2022-11-15T06:39:38;1.57;;;0.10;;
13475;SDS011;6810;63.824;20.288;2022-11-15T06:42:44;1.13;;;0.40;;
13475;SDS011;6810;63.824;20.288;2022-11-15T06:45:49;1.20;;;0.10;;
13475;SDS011;6810;63.824;20.288;2022-11-15T06:48:55;0.47;;;0.10;;
13475;SDS011;6810;63.824;20.288;2022-11-15T06:52:00;0.37;;;0.20;;
13475;SDS011;6810;63.824;20.288;2022-11-15T06:55:06;1.00;;;0.20;;
13475;SDS011;6810;63.824;20.288;2022-11-15T06:58:12;0.73;;;0.20;;
13475;SDS011;6810;63.824;20.288;2022-11-15T07:01:18;0.10;;;0.10;;
13475;SDS011;6810;63.824;20.288;2022-11-15T07:04:23;0.67;;;0.10;;
13475;SDS011;6810;63.824;20.288;2022-11-15T07:07:29;0.07;;;0.07;;
13475;SDS011;6810;63.824;20.288;2022-11-15T07:10:34;2.10;;;0.30;;
13475;SDS011;6810;63.824;20.288;2022-11-15T07:13:40;0.27;;;0.20;;
13475;SDS011;6810;63.824;20.288;2022-11-15T07:16:46;0.23;;;0.20;;
13475;SDS011;6810;63.824;20.288;2022-11-15T07:19:32;0.40;;;0.20;;
13475;SDS011;6810;63.824;20.288;2022-11-15T07:22:17;0.20;;;0.20;;
13475;SDS011;6810;63.824;20.288;2022-11-15T07:25:03;0.53;;;0.20;;
13475;SDS011;6810;63.824;20.288;2022-11-15T07:27:58;0.07;;;0.03;;
13475;SDS011;6810;63.824;20.288;2022-11-15T07:30:44;0.40;;;0.20;;
13475;SDS011;6810;63.824;20.288;2022-11-15T07:33:30;0.30;;;0.10;;
13475;SDS011;6810;63.824;20.288;2022-11-15T07:36:17;0.20;;;0.17;;
13475;SDS011;6810;63.824;20.288;2022-11-15T07:39:02;0.30;;;0.03;;
13475;SDS011;6810;63.824;20.288;2022-11-15T07:41:48;2.23;;;0.30;;
13475;SDS011;6810;63.824;20.288;2022-11-15T07:44:34;0.50;;;0.20;;
13475;SDS011;6810;63.824;20.288;2022-11-15T07:47:20;0.03;;;0.03;;
13475;SDS011;6810;63.824;20.288;2022-11-15T07:50:25;1.60;;;0.20;;
13475;SDS011;6810;63.824;20.288;2022-11-15T07:53:32;0.40;;;0.10;;
13475;SDS011;6810;63.824;20.288;2022-11-15T07:56:37;0.83;;;0.30;;
13475;SDS011;6810;63.824;20.288;2022-11-15T07:59:50;0.10;;;0.10;;
13475;SDS011;6810;63.824;20.288;2022-11-15T08:03:05;0.10;;;0.10;;
13475;SDS011;6810;63.824;20.288;2022-11-15T08:06:15;0.37;;;0.20;;
13475;SDS011;6810;63.824;20.288;2022-11-15T08:09:20;0.63;;;0.10;;
13475;SDS011;6810;63.824;20.288;2022-11-15T08:12:25;1.23;;;0.23;;
13475;SDS011;6810;63.824;20.288;2022-11-15T08:15:31;0.17;;;0.17;;
13475;SDS011;6810;63.824;20.288;2022-11-15T08:18:42;0.37;;;0.10;;
13475;SDS011;6810;63.824;20.288;2022-11-15T08:21:47;0.57;;;0.13;;
13475;SDS011;6810;63.824;20.288;2022-11-15T08:24:53;0.10;;;0.10;;
13475;SDS011;6810;63.824;20.288;2022-11-15T08:28:00;0.43;;;0.20;;
13475;SDS011;6810;63.824;20.288;2022-11-15T08:31:12;1.07;;;0.20;;
13475;SDS011;6810;63.824;20.288;2022-11-15T08:34:19;0.33;;;0.10;;
13475;SDS011;6810;63.824;20.288;2022-11-15T08:37:25;1.13;;;0.30;;
13475;SDS011;6810;63.824;20.288;2022-11-15T08:40:31;0.30;;;0.20;;
13475;SDS011;6810;63.824;20.288;2022-11-15T08:43:36;0.47;;;0.10;;
13475;SDS011;6810;63.824;20.288;2022-11-15T08:46:42;2.10;;;0.27;;
13475;SDS011;6810;63.824;20.288;2022-11-15T08:49:50;1.30;;;0.20;;
13475;SDS011;6810;63.824;20.288;2022-11-15T08:52:56;2.20;;;0.30;;
13475;SDS011;6810;63.824;20.288;2022-11-15T08:56:01;0.13;;;0.00;;
13475;SDS011;6810;63.824;20.288;2022-11-15T08:59:07;0.20;;;0.10;;
13475;SDS011;6810;63.824;20.288;2022-11-15T09:02:13;3.20;;;0.20;;
13475;SDS011;6810;63.824;20.288;2022-11-15T09:05:19;0.10;;;0.10;;
13475;SDS011;6810;63.824;20.288;2022-11-15T09:08:25;0.27;;;0.10;;
13475;SDS011;6810;63.824;20.288;2022-11-15T09:11:34;0.20;;;0.20;;
13475;SDS011;6810;63.824;20.288;2022-11-15T09:14:46;0.50;;;0.20;;
13475;SDS011;6810;63.824;20.288;2022-11-15T09:17:52;0.87;;;0.10;;
13475;SDS011;6810;63.824;20.288;2022-11-15T09:20:58;0.70;;;0.10;;
13475;SDS011;6810;63.824;20.288;2022-11-15T09:24:04;0.30;;;0.10;;
13475;SDS011;6810;63.824;20.288;2022-11-15T09:27:09;0.50;;;0.30;;
13475;SDS011;6810;63.824;20.288;2022-11-15T09:30:15;0.50;;;0.30;;
13475;SDS011;6810;63.824;20.288;2022-11-15T09:33:21;0.50;;;0.40;;
13475;SDS011;6810;63.824;20.288;2022-11-15T09:36:27;1.97;;;0.20;;
13475;SDS011;6810;63.824;20.288;2022-11-15T09:39:32;0.30;;;0.20;;
13475;SDS011;6810;63.824;20.288;2022-11-15T09:46:07;0.87;;;0.20;;
13475;SDS011;6810;63.824;20.288;2022-11-15T09:49:42;0.30;;;0.10;;
13475;SDS011;6810;63.824;20.288;2022-11-15T09:52:33;0.20;;;0.20;;
13475;SDS011;6810;63.824;20.288;2022-11-15T09:55:25;0.43;;;0.10;;
13475;SDS011;6810;63.824;20.288;2022-11-15T10:04:51;0.10;;;0.00;;
13475;SDS011;6810;63.824;20.288;2022-11-15T10:10:55;2.03;;;0.10;;
13475;SDS011;6810;63.824;20.288;2022-11-15T10:14:15;1.03;;;0.23;;
13475;SDS011;6810;63.824;20.288;2022-11-15T10:20:32;0.83;;;0.23;;
13475;SDS011;6810;63.824;20.288;2022-11-15T10:23:27;0.23;;;0.10;;
13475;SDS011;6810;63.824;20.288;2022-11-15T10:26:16;0.10;;;0.10;;
13475;SDS011;6810;63.824;20.288;2022-11-15T10:29:04;1.90;;;0.20;;
13475;SDS011;6810;63.824;20.288;2022-11-15T10:31:52;0.20;;;0.13;;
13475;SDS011;6810;63.824;20.288;2022-11-15T10:34:39;0.80;;;0.10;;
13475;SDS011;6810;63.824;20.288;2022-11-15T10:37:28;0.37;;;0.20;;
13475;SDS011;6810;63.824;20.288;2022-11-15T10:40:23;0.50;;;0.10;;
13475;SDS011;6810;63.824;20.288;2022-11-15T10:46:16;0.23;;;0.10;;
13475;SDS011;6810;63.824;20.288;2022-11-15T10:55:03;0.20;;;0.10;;
13475;SDS011;6810;63.824;20.288;2022-11-15T11:01:27;0.10;;;0.10;;
13475;SDS011;6810;63.824;20.288;2022-11-15T11:04:18;0.20;;;0.20;;
13475;SDS011;6810;63.824;20.288;2022-11-15T11:07:08;0.20;;;0.10;;
13475;SDS011;6810;63.824;20.288;2022-11-15T11:25:35;0.40;;;0.10;;
13475;SDS011;6810;63.824;20.288;2022-11-15T11:28:44;0.00;;;0.00;;
13475;SDS011;6810;63.824;20.288;2022-11-15T11:40:51;0.37;;;0.10;;
13475;SDS011;6810;63.824;20.288;2022-11-15T11:44:37;1.10;;;0.13;;
13475;SDS011;6810;63.824;20.288;2022-11-15T11:47:24;0.50;;;0.10;;
13475;SDS011;6810;63.824;20.288;2022-11-15T11:50:18;0.73;;;0.03;;
13475;SDS011;6810;63.824;20.288;2022-11-15T11:53:14;0.10;;;0.10;;
13475;SDS011;6810;63.824;20.288;2022-11-15T11:56:16;0.87;;;0.13;;
13475;SDS011;6810;63.824;20.288;2022-11-15T11:58:49;0.10;;;0.10;;
13475;SDS011;6810;63.824;20.288;2022-11-15T12:01:23;0.63;;;0.10;;
13475;SDS011;6810;63.824;20.288;2022-11-15T12:07:00;0.23;;;0.10;;
13475;SDS011;6810;63.824;20.288;2022-11-15T12:13:29;0.87;;;0.10;;
13475;SDS011;6810;63.824;20.288;2022-11-15T12:19:13;0.70;;;0.10;;
13475;SDS011;6810;63.824;20.288;2022-11-15T12:24:59;0.43;;;0.10;;
13475;SDS011;6810;63.824;20.288;2022-11-15T12:27:53;0.33;;;0.00;;
13475;SDS011;6810;63.824;20.288;2022-11-15T12:30:51;0.83;;;0.10;;
13475;SDS011;6810;63.824;20.288;2022-11-15T12:33:40;0.73;;;0.10;;
13475;SDS011;6810;63.824;20.288;2022-11-15T12:36:39;0.77;;;0.10;;
13475;SDS011;6810;63.824;20.288;2022-11-15T12:46:01;0.10;;;0.10;;
13475;SDS011;6810;63.824;20.288;2022-11-15T12:48:51;0.43;;;0.20;;
13475;SDS011;6810;63.824;20.288;2022-11-15T12:57:27;0.40;;;0.10;;
13475;SDS011;6810;63.824;20.288;2022-11-15T13:03:27;0.20;;;0.20;;
13475;SDS011;6810;63.824;20.288;2022-11-15T13:06:33;0.30;;;0.20;;
13475;SDS011;6810;63.824;20.288;2022-11-15T13:10:28;0.77;;;0.20;;
13475;SDS011;6810;63.824;20.288;2022-11-15T13:15:33;0.13;;;0.10;;
13475;SDS011;6810;63.824;20.288;2022-11-15T13:21:22;0.30;;;0.10;;
13475;SDS011;6810;63.824;20.288;2022-11-15T13:24:12;0.20;;;0.10;;
13475;SDS011;6810;63.824;20.288;2022-11-15T13:27:02;0.20;;;0.10;;
13475;SDS011;6810;63.824;20.288;2022-11-15T13:30:02;0.20;;;0.20;;
13475;SDS011;6810;63.824;20.288;2022-11-15T13:32:50;0.10;;;0.10;;
13475;SDS011;6810;63.824;20.288;2022-11-15T13:35:38;0.30;;;0.30;;
13475;SDS011;6810;63.824;20.288;2022-11-15T13:38:28;0.13;;;0.10;;
13475;SDS011;6810;63.824;20.288;2022-11-15T13:41:21;0.27;;;0.10;;
13475;SDS011;6810;63.824;20.288;2022-11-15T13:44:17;0.10;;;0.10;;
13475;SDS011;6810;63.824;20.288;2022-11-15T13:47:12;0.17;;;0.10;;
13475;SDS011;6810;63.824;20.288;2022-11-15T13:50:00;0.10;;;0.10;;
13475;SDS011;6810;63.824;20.288;2022-11-15T13:52:48;0.30;;;0.10;;
13475;SDS011;6810;63.824;20.288;2022-11-15T13:55:35;1.33;;;0.10;;
13475;SDS011;6810;63.824;20.288;2022-11-15T13:58:22;0.93;;;0.37;;
13475;SDS011;6810;63.824;20.288;2022-11-15T14:01:13;0.70;;;0.20;;
13475;SDS011;6810;63.824;20.288;2022-11-15T14:04:03;0.43;;;0.17;;
13475;SDS011;6810;63.824;20.288;2022-11-15T14:06:55;1.10;;;0.10;;
13475;SDS011;6810;63.824;20.288;2022-11-15T14:09:44;0.30;;;0.10;;
13475;SDS011;6810;63.824;20.288;2022-11-15T14:12:32;0.20;;;0.20;;
13475;SDS011;6810;63.824;20.288;2022-11-15T14:15:37;0.50;;;0.10;;
13475;SDS011;6810;63.824;20.288;2022-11-15T14:18:39;0.73;;;0.20;;
13475;SDS011;6810;63.824;20.288;2022-11-15T14:21:28;0.23;;;0.20;;
13475;SDS011;6810;63.824;20.288;2022-11-15T14:24:19;0.10;;;0.10;;
13475;SDS011;6810;63.824;20.288;2022-11-15T14:30:15;0.07;;;0.07;;
13475;SDS011;6810;63.824;20.288;2022-11-15T14:33:11;0.27;;;0.10;;
13475;SDS011;6810;63.824;20.288;2022-11-15T14:36:14;0.03;;;0.03;;
13475;SDS011;6810;63.824;20.288;2022-11-15T14:39:05;0.07;;;0.07;;
13475;SDS011;6810;63.824;20.288;2022-11-15T14:41:52;0.40;;;0.10;;
13475;SDS011;6810;63.824;20.288;2022-11-15T14:44:39;0.10;;;0.10;;
13475;SDS011;6810;63.824;20.288;2022-11-15T14:47:26;1.60;;;0.20;;
13475;SDS011;6810;63.824;20.288;2022-11-15T14:50:14;0.23;;;0.20;;
13475;SDS011;6810;63.824;20.288;2022-11-15T14:53:03;0.30;;;0.20;;
13475;SDS011;6810;63.824;20.288;2022-11-15T14:55:50;0.20;;;0.10;;
13475;SDS011;6810;63.824;20.288;2022-11-15T14:58:37;0.13;;;0.10;;
13475;SDS011;6810;63.824;20.288;2022-11-15T15:01:25;0.10;;;0.10;;
13475;SDS011;6810;63.824;20.288;2022-11-15T15:04:13;0.30;;;0.10;;
13475;SDS011;6810;63.824;20.288;2022-11-15T15:06:59;0.47;;;0.10;;
13475;SDS011;6810;63.824;20.288;2022-11-15T15:09:47;1.10;;;0.10;;
13475;SDS011;6810;63.824;20.288;2022-11-15T15:12:53;0.10;;;0.10;;
13475;SDS011;6810;63.824;20.288;2022-11-15T15:15:41;0.40;;;0.10;;
13475;SDS011;6810;63.824;20.288;2022-11-15T15:18:28;2.30;;;0.20;;
13475;SDS011;6810;63.824;20.288;2022-11-15T15:21:17;1.57;;;0.30;;
13475;SDS011;6810;63.824;20.288;2022-11-15T15:24:05;0.77;;;0.20;;
13475;SDS011;6810;63.824;20.288;2022-11-15T15:26:52;0.70;;;0.27;;
13475;SDS011;6810;63.824;20.288;2022-11-15T15:29:39;0.30;;;0.10;;
13475;SDS011;6810;63.824;20.288;2022-11-15T15:32:27;0.67;;;0.37;;
13475;SDS011;6810;63.824;20.288;2022-11-15T15:35:14;0.50;;;0.30;;
13475;SDS011;6810;63.824;20.288;2022-11-15T15:38:02;0.40;;;0.30;;
13475;SDS011;6810;63.824;20.288;2022-11-15T15:40:49;0.93;;;0.40;;
13475;SDS011;6810;63.824;20.288;2022-11-15T15:43:37;0.87;;;0.30;;
13475;SDS011;6810;63.824;20.288;2022-11-15T15:46:24;0.30;;;0.30;;
13475;SDS011;6810;63.824;20.288;2022-11-15T15:49:11;1.00;;;0.30;;
13475;SDS011;6810;63.824;20.288;2022-11-15T15:51:58;0.93;;;0.30;;
13475;SDS011;6810;63.824;20.288;2022-11-15T15:54:45;0.87;;;0.40;;
13475;SDS011;6810;63.824;20.288;2022-11-15T15:57:32;1.23;;;0.63;;
13475;SDS011;6810;63.824;20.288;2022-11-15T16:00:19;0.50;;;0.50;;
13475;SDS011;6810;63.824;20.288;2022-11-15T16:03:07;1.67;;;0.60;;
13475;SDS011;6810;63.824;20.288;2022-11-15T16:05:54;0.70;;;0.50;;
13475;SDS011;6810;63.824;20.288;2022-11-15T16:08:41;0.63;;;0.63;;
13475;SDS011;6810;63.824;20.288;2022-11-15T16:11:41;1.83;;;0.80;;
13475;SDS011;6810;63.824;20.288;2022-11-15T16:14:30;1.27;;;0.50;;
13475;SDS011;6810;63.824;20.288;2022-11-15T16:16:57;0.87;;;0.63;;
13475;SDS011;6810;63.824;20.288;2022-11-15T16:19:24;0.97;;;0.60;;
13475;SDS011;6810;63.824;20.288;2022-11-15T16:21:51;1.63;;;0.60;;
13475;SDS011;6810;63.824;20.288;2022-11-15T16:24:18;1.57;;;0.60;;
13475;SDS011;6810;63.824;20.288;2022-11-15T16:26:46;0.67;;;0.60;;
13475;SDS011;6810;63.824;20.288;2022-11-15T16:29:34;1.23;;;0.60;;
13475;SDS011;6810;63.824;20.288;2022-11-15T16:32:21;1.20;;;0.63;;
13475;SDS011;6810;63.824;20.288;2022-11-15T16:34:49;1.20;;;0.50;;
13475;SDS011;6810;63.824;20.288;2022-11-15T16:37:21;0.87;;;0.50;;
13475;SDS011;6810;63.824;20.288;2022-11-15T16:39:49;1.67;;;0.57;;
13475;SDS011;6810;63.824;20.288;2022-11-15T16:42:16;1.23;;;0.70;;
13475;SDS011;6810;63.824;20.288;2022-11-15T16:45:03;2.53;;;0.63;;
13475;SDS011;6810;63.824;20.288;2022-11-15T16:47:51;1.50;;;0.80;;
13475;SDS011;6810;63.824;20.288;2022-11-15T16:50:38;1.27;;;0.73;;
13475;SDS011;6810;63.824;20.288;2022-11-15T16:53:26;1.73;;;0.90;;
13475;SDS011;6810;63.824;20.288;2022-11-15T16:59:14;1.90;;;1.30;;
13475;SDS011;6810;63.824;20.288;2022-11-15T17:02:04;1.77;;;0.90;;
13475;SDS011;6810;63.824;20.288;2022-11-15T17:04:57;3.63;;;1.33;;
13475;SDS011;6810;63.824;20.288;2022-11-15T17:07:49;2.07;;;1.00;;
13475;SDS011;6810;63.824;20.288;2022-11-15T17:10:40;1.37;;;1.10;;
13475;SDS011;6810;63.824;20.288;2022-11-15T17:13:27;2.33;;;1.10;;
13475;SDS011;6810;63.824;20.288;2022-11-15T17:16:16;1.87;;;1.20;;
13475;SDS011;6810;63.824;20.288;2022-11-15T17:18:44;1.17;;;1.00;;
13475;SDS011;6810;63.824;20.288;2022-11-15T17:21:12;1.90;;;1.13;;
13475;SDS011;6810;63.824;20.288;2022-11-15T17:23:41;0.90;;;0.90;;
13475;SDS011;6810;63.824;20.288;2022-11-15T17:26:10;1.90;;;1.30;;
13475;SDS011;6810;63.824;20.288;2022-11-15T17:28:56;2.10;;;1.13;;
13475;SDS011;6810;63.824;20.288;2022-11-15T17:31:23;3.30;;;1.20;;
13475;SDS011;6810;63.824;20.288;2022-11-15T17:33:51;1.97;;;1.20;;
13475;SDS011;6810;63.824;20.288;2022-11-15T17:36:38;1.97;;;1.10;;
13475;SDS011;6810;63.824;20.288;2022-11-15T17:39:25;2.07;;;0.97;;
13475;SDS011;6810;63.824;20.288;2022-11-15T17:42:12;3.63;;;1.23;;
13475;SDS011;6810;63.824;20.288;2022-11-15T17:44:58;1.30;;;1.13;;
13475;SDS011;6810;63.824;20.288;2022-11-15T17:47:46;1.47;;;1.17;;
13475;SDS011;6810;63.824;20.288;2022-11-15T17:50:33;2.30;;;1.40;;
13475;SDS011;6810;63.824;20.288;2022-11-15T17:53:20;2.63;;;1.10;;
13475;SDS011;6810;63.824;20.288;2022-11-15T17:56:08;1.87;;;1.17;;
13475;SDS011;6810;63.824;20.288;2022-11-15T17:58:57;3.17;;;1.20;;
13475;SDS011;6810;63.824;20.288;2022-11-15T18:01:47;2.77;;;0.87;;
13475;SDS011;6810;63.824;20.288;2022-11-15T18:04:34;0.80;;;0.73;;
13475;SDS011;6810;63.824;20.288;2022-11-15T18:07:21;1.17;;;0.93;;
13475;SDS011;6810;63.824;20.288;2022-11-15T18:10:08;1.77;;;1.27;;
13475;SDS011;6810;63.824;20.288;2022-11-15T18:12:55;1.10;;;0.97;;
13475;SDS011;6810;63.824;20.288;2022-11-15T18:15:42;2.47;;;0.90;;
13475;SDS011;6810;63.824;20.288;2022-11-15T18:18:40;1.43;;;1.00;;
13475;SDS011;6810;63.824;20.288;2022-11-15T18:21:29;2.13;;;1.20;;
13475;SDS011;6810;63.824;20.288;2022-11-15T18:24:17;0.97;;;0.53;;
13475;SDS011;6810;63.824;20.288;2022-11-15T18:27:05;1.40;;;0.80;;
13475;SDS011;6810;63.824;20.288;2022-11-15T18:29:52;1.50;;;0.80;;
13475;SDS011;6810;63.824;20.288;2022-11-15T18:32:39;3.07;;;0.70;;
13475;SDS011;6810;63.824;20.288;2022-11-15T18:35:26;1.40;;;0.60;;
13475;SDS011;6810;63.824;20.288;2022-11-15T18:38:13;1.17;;;0.63;;
13475;SDS011;6810;63.824;20.288;2022-11-15T18:41:07;0.80;;;0.80;;
13475;SDS011;6810;63.824;20.288;2022-11-15T18:44:02;2.80;;;1.00;;
13475;SDS011;6810;63.824;20.288;2022-11-15T18:46:48;0.80;;;0.53;;
13475;SDS011;6810;63.824;20.288;2022-11-15T18:49:35;1.93;;;0.77;;
13475;SDS011;6810;63.824;20.288;2022-11-15T18:52:22;1.37;;;0.70;;
13475;SDS011;6810;63.824;20.288;2022-11-15T18:55:12;0.87;;;0.53;;
13475;SDS011;6810;63.824;20.288;2022-11-15T18:57:58;1.20;;;0.90;;
13475;SDS011;6810;63.824;20.288;2022-11-15T19:00:46;1.00;;;0.63;;
13475;SDS011;6810;63.824;20.288;2022-11-15T19:03:33;0.63;;;0.63;;
13475;SDS011;6810;63.824;20.288;2022-11-15T19:06:25;1.97;;;0.93;;
13475;SDS011;6810;63.824;20.288;2022-11-15T19:09:14;2.13;;;0.90;;
13475;SDS011;6810;63.824;20.288;2022-11-15T19:12:02;0.97;;;0.87;;
13475;SDS011;6810;63.824;20.288;2022-11-15T19:14:50;2.07;;;0.73;;
13475;SDS011;6810;63.824;20.288;2022-11-15T19:17:37;1.10;;;0.80;;
13475;SDS011;6810;63.824;20.288;2022-11-15T19:20:24;3.20;;;1.20;;
13475;SDS011;6810;63.824;20.288;2022-11-15T19:23:11;2.20;;;1.20;;
13475;SDS011;6810;63.824;20.288;2022-11-15T19:25:59;2.13;;;1.17;;
13475;SDS011;6810;63.824;20.288;2022-11-15T19:28:54;2.23;;;1.50;;
13475;SDS011;6810;63.824;20.288;2022-11-15T19:31:42;2.13;;;1.30;;
13475;SDS011;6810;63.824;20.288;2022-11-15T19:34:29;1.70;;;1.30;;
13475;SDS011;6810;63.824;20.288;2022-11-15T19:37:16;2.13;;;1.27;;
13475;SDS011;6810;63.824;20.288;2022-11-15T19:40:04;1.50;;;1.07;;
13475;SDS011;6810;63.824;20.288;2022-11-15T19:42:51;1.00;;;0.90;;
13475;SDS011;6810;63.824;20.288;2022-11-15T19:45:38;0.63;;;0.60;;
13475;SDS011;6810;63.824;20.288;2022-11-15T19:48:28;2.10;;;0.70;;
13475;SDS011;6810;63.824;20.288;2022-11-15T19:51:18;2.43;;;1.10;;
13475;SDS011;6810;63.824;20.288;2022-11-15T19:54:09;1.27;;;0.80;;
13475;SDS011;6810;63.824;20.288;2022-11-15T19:56:56;1.53;;;0.80;;
13475;SDS011;6810;63.824;20.288;2022-11-15T19:59:43;1.33;;;0.50;;